Time;durP1;ratioP1;P1;durP2;ratioP2;P2;SDS_P1;SDS_P2;PMS_P1;PMS_P2;Temp;Humidity;BMP_temperature;BMP_pressure;BME280_temperature;BME280_humidity;BME280_pressure;Samples;Min_cycle;Max_cycle;Signal;HPM_P1;HPM_P2
2021/01/07 00:01:14;;;;;;;6.93;3.85;;;;;;;-1.99;83.37;100534.72;5065900;28;20028;-63
2021/01/07 00:03:39;;;;;;;6.45;3.75;;;;;;;-2.03;83.25;100543.03;5083801;28;20037;-64
2021/01/07 00:06:12;;;;;;;10.95;5.15;;;;;;;-2.03;83.35;100515.91;5082666;28;20051;-64
2021/01/07 00:08:38;;;;;;;8.48;5.53;;;;;;;-2.01;83.25;100528.69;5083568;28;20079;-65
2021/01/07 00:11:09;;;;;;;4.03;2.45;;;;;;;-2.06;83.48;100530.19;5083884;28;20028;-64
2021/01/07 00:13:35;;;;;;;10.80;5.00;;;;;;;-2.04;83.24;100534.53;5082186;28;20028;-64
2021/01/07 00:16:02;;;;;;;4.47;3.03;;;;;;;-2.04;83.17;100529.44;5083836;28;20044;-64
2021/01/07 00:18:27;;;;;;;7.53;4.35;;;;;;;-2.04;83.38;100526.88;5083785;28;20040;-65
2021/01/07 00:20:53;;;;;;;6.63;3.00;;;;;;;-2.03;83.22;100530.31;5083490;28;20024;-64
2021/01/07 00:23:19;;;;;;;9.00;4.97;;;;;;;-2.03;83.36;100526.06;5081879;28;20070;-64
2021/01/07 00:25:49;;;;;;;7.53;4.50;;;;;;;-2.09;83.43;100520.72;5083749;28;20079;-63
2021/01/07 00:28:15;;;;;;;6.63;4.18;;;;;;;-2.04;83.42;100529.44;5083618;28;20021;-64
2021/01/07 00:30:42;;;;;;;10.05;5.15;;;;;;;-2.03;83.47;100515.91;5083553;28;20028;-64
2021/01/07 00:33:09;;;;;;;6.25;3.95;;;;;;;-2.04;83.24;100519.25;5083385;28;20025;-64
2021/01/07 00:35:34;;;;;;;9.45;4.90;;;;;;;-2.07;83.33;100513.16;5082206;28;20042;-65
2021/01/07 00:38:00;;;;;;;4.50;2.63;;;;;;;-2.03;83.16;100518.44;5083212;28;20021;-65
2021/01/07 00:40:25;;;;;;;9.93;4.70;;;;;;;-2.05;83.42;100521.72;5083504;28;20024;-65
2021/01/07 00:42:50;;;;;;;4.80;2.97;;;;;;;-2.04;83.38;100506.53;5083379;28;20103;-64
2021/01/07 00:45:17;;;;;;;8.25;4.07;;;;;;;-2.04;83.30;100508.19;5083656;28;20031;-64
2021/01/07 00:47:42;;;;;;;5.28;3.38;;;;;;;-2.04;83.32;100509.06;5083382;28;20031;-64
2021/01/07 00:50:08;;;;;;;5.95;3.17;;;;;;;-1.98;83.08;100510.16;5083464;28;20127;-65
2021/01/07 00:52:34;;;;;;;4.68;2.60;;;;;;;-2.04;83.18;100503.09;5083057;28;20046;-64
2021/01/07 00:54:59;;;;;;;8.05;3.95;;;;;;;-2.04;83.19;100500.56;5083430;28;20016;-64
2021/01/07 00:57:26;;;;;;;6.38;3.88;;;;;;;-2.04;83.33;100505.66;5086850;28;20032;-65
2021/01/07 00:59:52;;;;;;;6.03;3.90;;;;;;;-2.05;83.29;100501.38;5086267;28;20317;-64
2021/01/07 01:02:18;;;;;;;6.68;3.83;;;;;;;-2.04;83.24;100498.00;5087260;28;20048;-66
2021/01/07 01:04:44;;;;;;;8.15;4.43;;;;;;;-2.02;83.40;100511.69;5086985;28;20054;-65
2021/01/07 01:07:09;;;;;;;9.85;3.83;;;;;;;-2.03;83.27;100507.41;5087046;28;20103;-66
2021/01/07 01:09:34;;;;;;;8.55;5.13;;;;;;;-2.08;83.26;100491.94;5086912;28;20085;-65
2021/01/07 01:12:00;;;;;;;10.60;3.63;;;;;;;-2.01;83.34;100501.56;5086884;28;20124;-64
2021/01/07 01:14:25;;;;;;;7.53;4.55;;;;;;;-2.00;83.26;100497.38;5086751;28;20040;-65
2021/01/07 01:16:51;;;;;;;6.90;3.80;;;;;;;-2.01;83.37;100499.03;5086975;28;20028;-65
2021/01/07 01:19:20;;;;;;;5.13;3.10;;;;;;;-1.98;83.10;100497.44;5086575;28;20051;-65
2021/01/07 01:21:51;;;;;;;8.32;4.78;;;;;;;-2.02;83.20;100501.50;5086732;28;20028;-65
2021/01/07 01:24:16;;;;;;;8.13;4.25;;;;;;;-1.98;83.37;100499.97;5086299;28;20096;-64
2021/01/07 01:26:41;;;;;;;11.13;5.70;;;;;;;-1.97;83.16;100499.16;5086680;28;20055;-65
2021/01/07 01:29:07;;;;;;;7.22;3.50;;;;;;;-1.95;83.29;100503.50;5086624;28;20036;-65
2021/01/07 01:31:37;;;;;;;6.38;3.70;;;;;;;-1.99;83.33;100501.66;5119207;28;20024;-64
2021/01/07 01:34:03;;;;;;;5.30;3.22;;;;;;;-1.98;83.30;100494.88;5086489;28;20419;-65
2021/01/07 01:36:28;;;;;;;9.23;4.82;;;;;;;-1.99;83.20;100496.56;5086492;28;20048;-64
2021/01/07 01:38:54;;;;;;;7.95;4.93;;;;;;;-1.97;83.23;100494.06;5086177;28;20024;-66
2021/01/07 01:41:20;;;;;;;8.98;4.50;;;;;;;-2.03;83.39;100490.44;5085153;28;20030;-64
2021/01/07 01:43:45;;;;;;;10.55;4.75;;;;;;;-1.98;83.25;100487.25;5086221;28;20021;-65
2021/01/07 01:46:11;;;;;;;9.60;4.35;;;;;;;-2.03;83.12;100494.69;5086374;28;20029;-65
2021/01/07 01:48:36;;;;;;;9.43;4.47;;;;;;;-2.07;83.23;100493.69;5086184;28;20017;-65
2021/01/07 01:51:02;;;;;;;8.55;3.72;;;;;;;-2.10;83.20;100492.66;5086051;28;20163;-65
2021/01/07 01:53:27;;;;;;;9.70;4.97;;;;;;;-2.14;83.61;100484.88;5085704;28;20020;-65
2021/01/07 01:55:54;;;;;;;6.15;4.03;;;;;;;-2.04;83.46;100492.94;5086165;28;20031;-65
2021/01/07 01:58:20;;;;;;;9.68;5.00;;;;;;;-2.02;83.46;100486.25;5085927;28;20032;-65
2021/01/07 02:00:46;;;;;;;5.35;3.22;;;;;;;-2.08;83.38;100481.78;5084965;28;20021;-65
2021/01/07 02:03:12;;;;;;;5.03;2.78;;;;;;;-2.08;83.56;100491.06;5084205;28;20020;-64
2021/01/07 02:05:40;;;;;;;5.38;3.00;;;;;;;-2.08;83.49;100488.53;5086018;28;20027;-65
2021/01/07 02:08:12;;;;;;;5.43;3.30;;;;;;;-2.10;83.43;100482.47;5084736;28;20028;-64
2021/01/07 02:10:38;;;;;;;6.68;3.83;;;;;;;-2.15;83.59;100482.28;5085981;28;20095;-65
2021/01/07 02:13:04;;;;;;;5.45;4.03;;;;;;;-2.15;83.27;100477.19;5085760;28;20051;-65
2021/01/07 02:15:31;;;;;;;6.30;3.40;;;;;;;-2.10;83.53;100467.22;5085858;28;20024;-65
2021/01/07 02:17:56;;;;;;;5.30;3.50;;;;;;;-2.07;83.48;100470.78;5085675;28;20050;-64
2021/01/07 02:20:26;;;;;;;9.48;5.13;;;;;;;-2.14;83.52;100476.41;5084341;28;20048;-65
2021/01/07 02:22:56;;;;;;;6.88;4.18;;;;;;;-2.13;83.60;100480.69;5084692;28;20048;-65
2021/01/07 02:25:22;;;;;;;5.05;2.88;;;;;;;-2.16;83.75;100480.53;5084491;28;20024;-65
2021/01/07 02:27:51;;;;;;;3.72;2.38;;;;;;;-2.15;83.66;100477.19;5085433;28;20054;-64
2021/01/07 02:30:17;;;;;;;6.82;4.40;;;;;;;-2.14;83.81;100472.16;5085646;28;20107;-64
2021/01/07 02:32:44;;;;;;;5.35;3.20;;;;;;;-2.13;83.60;100468.84;5083718;28;20024;-64
2021/01/07 02:35:10;;;;;;;5.03;2.80;;;;;;;-2.13;83.84;100473.94;5085520;28;20021;-64
2021/01/07 02:37:36;;;;;;;10.32;4.93;;;;;;;-2.05;83.41;100471.72;5084698;28;20058;-64
2021/01/07 02:40:05;;;;;;;7.85;3.78;;;;;;;-2.12;83.56;100460.41;5085064;28;20453;-64
2021/01/07 02:42:30;;;;;;;9.30;4.20;;;;;;;-2.07;83.60;100469.91;5084696;28;20032;-65
2021/01/07 02:44:55;;;;;;;12.18;5.13;;;;;;;-2.09;83.52;100469.81;5083144;28;20088;-64
2021/01/07 02:47:21;;;;;;;10.00;5.25;;;;;;;-2.08;83.75;100463.97;5084946;28;20039;-64
2021/01/07 02:49:46;;;;;;;4.40;3.35;;;;;;;-2.07;83.50;100463.16;5085052;28;20021;-65
2021/01/07 02:52:11;;;;;;;10.55;5.20;;;;;;;-2.07;83.50;100463.16;5084764;28;20050;-65
2021/01/07 02:54:37;;;;;;;7.25;4.50;;;;;;;-2.05;83.66;100456.47;5084379;28;20021;-64
2021/01/07 02:57:02;;;;;;;7.88;5.20;;;;;;;-1.98;83.32;100456.72;5084728;28;20085;-64
2021/01/07 02:59:28;;;;;;;7.68;4.60;;;;;;;-2.02;82.99;100458.25;5084633;28;20032;-64
2021/01/07 03:01:54;;;;;;;10.35;5.63;;;;;;;-2.05;83.22;100450.50;5084332;28;20024;-64
2021/01/07 03:04:20;;;;;;;8.45;4.53;;;;;;;-2.04;83.16;100450.56;5084217;28;20076;-64
2021/01/07 03:06:46;;;;;;;7.00;2.70;;;;;;;-2.02;83.14;100445.53;5084553;28;20025;-64
2021/01/07 03:09:12;;;;;;;3.88;2.45;;;;;;;-2.10;83.15;100445.19;5082884;28;20415;-64
2021/01/07 03:11:37;;;;;;;7.43;4.70;;;;;;;-2.08;83.30;100448.69;5082894;28;20154;-65
2021/01/07 03:14:03;;;;;;;9.60;5.55;;;;;;;-2.05;83.35;100450.50;5084046;28;20043;-65
2021/01/07 03:16:28;;;;;;;9.23;5.35;;;;;;;-2.02;83.24;100446.41;5084003;28;20033;-64
2021/01/07 03:18:54;;;;;;;8.98;4.75;;;;;;;-2.04;83.53;100440.38;5083720;28;20052;-65
2021/01/07 03:21:19;;;;;;;9.85;4.70;;;;;;;-1.95;83.06;100446.69;5084149;28;20024;-64
2021/01/07 03:23:44;;;;;;;5.88;3.42;;;;;;;-1.97;82.89;100445.72;5082076;28;20045;-64
2021/01/07 03:26:10;;;;;;;7.65;4.07;;;;;;;-2.05;82.93;100441.19;5084021;28;20116;-63
2021/01/07 03:28:35;;;;;;;6.88;3.90;;;;;;;-2.06;83.14;100444.53;5083888;28;20048;-64
2021/01/07 03:31:00;;;;;;;6.93;3.78;;;;;;;-2.04;83.11;100442.03;5082521;28;20419;-64
2021/01/07 03:33:26;;;;;;;8.13;4.57;;;;;;;-2.04;83.28;100440.38;5082313;28;20020;-64
2021/01/07 03:35:51;;;;;;;9.25;4.72;;;;;;;-2.03;83.22;100438.72;5083868;28;20618;-64
2021/01/07 03:38:16;;;;;;;6.68;2.97;;;;;;;-2.05;83.13;100432.69;5083492;28;20035;-65
2021/01/07 03:40:42;;;;;;;10.02;4.07;;;;;;;-2.04;83.09;100425.13;5083856;28;20048;-63
2021/01/07 03:43:07;;;;;;;3.63;2.30;;;;;;;-2.05;83.12;100428.47;5083369;28;20020;-63
2021/01/07 03:45:32;;;;;;;5.20;3.08;;;;;;;-2.10;83.23;100429.94;5083743;28;20055;-63
2021/01/07 03:47:58;;;;;;;10.35;4.63;;;;;;;-2.13;83.32;100423.06;5083689;28;20086;-63
2021/01/07 03:50:23;;;;;;;6.28;3.63;;;;;;;-2.06;83.22;100429.25;5083788;28;20153;-63
2021/01/07 03:52:49;;;;;;;8.00;4.78;;;;;;;-2.05;83.23;100419.97;5083422;28;20052;-63
2021/01/07 03:55:14;;;;;;;3.55;2.08;;;;;;;-2.13;83.22;100412.00;5083284;28;20162;-64
2021/01/07 03:57:39;;;;;;;7.43;2.97;;;;;;;-2.12;83.24;100411.19;5083344;28;20047;-63
2021/01/07 04:00:06;;;;;;;6.72;3.58;;;;;;;-2.07;83.09;100411.38;5082084;28;20028;-65
2021/01/07 04:02:31;;;;;;;6.95;3.90;;;;;;;-2.08;83.33;100415.63;5083337;28;20029;-64
2021/01/07 04:04:57;;;;;;;10.15;4.40;;;;;;;-2.03;82.97;100419.22;5083231;28;20020;-63
2021/01/07 04:07:22;;;;;;;5.05;2.60;;;;;;;-2.04;83.09;100403.88;5083307;28;20058;-64
2021/01/07 04:09:47;;;;;;;8.13;3.47;;;;;;;-2.04;83.20;100411.50;5083211;28;20029;-63
2021/01/07 04:12:13;;;;;;;9.40;5.18;;;;;;;-2.04;83.19;100412.38;5083058;28;20518;-64
2021/01/07 04:14:38;;;;;;;9.30;5.32;;;;;;;-2.01;83.31;100412.53;5083251;28;20020;-64
2021/01/07 04:17:04;;;;;;;4.25;2.65;;;;;;;-1.99;83.06;100404.94;5081795;28;20024;-62
2021/01/07 04:19:29;;;;;;;4.65;2.95;;;;;;;-2.01;82.96;100401.47;5083061;28;20024;-64
2021/01/07 04:21:54;;;;;;;6.85;3.65;;;;;;;-1.99;82.95;100410.03;5083048;28;20048;-64
2021/01/07 04:24:20;;;;;;;5.28;3.83;;;;;;;-2.00;83.00;100398.97;5062568;28;20448;-64
2021/01/07 04:26:45;;;;;;;4.80;3.67;;;;;;;-1.97;82.77;100398.25;5062868;28;20080;-64
2021/01/07 04:29:11;;;;;;;7.45;4.07;;;;;;;-1.97;82.79;100397.38;5063025;28;20029;-64
2021/01/07 04:31:36;;;;;;;8.60;4.43;;;;;;;-1.92;82.69;100391.69;5062514;28;20017;-64
2021/01/07 04:34:02;;;;;;;8.27;3.13;;;;;;;-1.91;82.49;100390.00;5062619;28;20036;-64
2021/01/07 04:36:28;;;;;;;8.40;3.97;;;;;;;-1.95;82.45;100389.00;5063024;28;20025;-64
2021/01/07 04:38:54;;;;;;;8.48;3.83;;;;;;;-1.91;82.32;100390.00;5061142;28;20526;-64
2021/01/07 04:41:20;;;;;;;9.80;4.45;;;;;;;-1.92;82.32;100396.78;5062769;28;20109;-64
2021/01/07 04:43:45;;;;;;;9.23;5.22;;;;;;;-1.88;82.33;100390.13;5062548;28;20029;-64
2021/01/07 04:46:11;;;;;;;9.82;4.30;;;;;;;-1.87;82.45;100379.19;5062740;28;20079;-65
2021/01/07 04:48:37;;;;;;;8.43;4.55;;;;;;;-1.82;82.38;100380.22;5062647;28;20081;-65
2021/01/07 04:51:04;;;;;;;7.45;4.18;;;;;;;-1.75;81.89;100387.31;5062699;28;20021;-66
2021/01/07 04:53:29;;;;;;;7.57;4.57;;;;;;;-1.81;82.00;100387.06;5062390;28;20021;-64
2021/01/07 04:55:55;;;;;;;6.43;3.78;;;;;;;-1.77;81.96;100386.38;5062769;28;20032;-64
2021/01/07 04:58:20;;;;;;;6.57;3.67;;;;;;;-1.76;81.93;100384.72;5062524;28;20025;-64
2021/01/07 05:00:45;;;;;;;10.85;3.92;;;;;;;-1.79;81.92;100379.50;5062800;28;20017;-64
2021/01/07 05:03:19;;;;;;;4.22;2.88;;;;;;;-1.78;81.73;100383.75;5062581;28;20021;-64
2021/01/07 05:05:48;;;;;;;11.50;5.05;;;;;;;-1.75;81.72;100386.44;5062666;28;20029;-65
2021/01/07 05:08:16;;;;;;;3.47;2.20;;;;;;;-1.77;81.46;100386.38;5062283;28;20025;-64
2021/01/07 05:10:50;;;;;;;9.00;4.68;;;;;;;-1.77;81.75;100381.28;5062486;28;20043;-63
2021/01/07 05:13:17;;;;;;;6.35;4.10;;;;;;;-1.72;81.85;100383.13;5062311;28;20025;-64
2021/01/07 05:15:42;;;;;;;6.85;4.65;;;;;;;-1.71;81.85;100379.81;5062523;28;20492;-64
2021/01/07 05:18:08;;;;;;;3.53;2.40;;;;;;;-1.62;81.42;100382.72;5062155;28;20089;-63
2021/01/07 05:20:34;;;;;;;5.30;2.67;;;;;;;-1.70;81.59;100377.31;5062482;28;20047;-63
2021/01/07 05:23:00;;;;;;;8.75;5.10;;;;;;;-1.64;81.39;100382.66;5070504;28;20104;-64
2021/01/07 05:25:29;;;;;;;7.13;3.72;;;;;;;-1.63;81.33;100374.19;5082498;28;20507;-64
2021/01/07 05:28:02;;;;;;;4.00;2.75;;;;;;;-1.70;81.12;100377.31;5082308;28;20113;-64
2021/01/07 05:30:29;;;;;;;7.57;4.00;;;;;;;-1.70;81.22;100395.13;5082290;28;20025;-63
2021/01/07 05:33:09;;;;;;;7.40;4.38;;;;;;;-1.69;81.07;100380.75;5082261;28;20024;-64
2021/01/07 05:35:35;;;;;;;7.22;2.80;;;;;;;-1.75;81.26;100379.69;5082512;28;20020;-64
2021/01/07 05:38:04;;;;;;;8.88;4.28;;;;;;;-1.75;81.37;100379.69;5081946;28;20066;-64
2021/01/07 05:40:29;;;;;;;7.75;4.70;;;;;;;-1.75;81.25;100366.94;5082567;28;20036;-65
2021/01/07 05:42:58;;;;;;;5.85;3.05;;;;;;;-1.67;81.19;100368.94;5083089;28;20036;-64
2021/01/07 05:45:34;;;;;;;8.70;3.92;;;;;;;-1.63;81.05;100375.91;5086111;28;20024;-64
2021/01/07 05:48:01;;;;;;;8.45;4.35;;;;;;;-1.66;81.18;100374.09;5085869;28;20024;-65
2021/01/07 05:50:29;;;;;;;8.68;4.45;;;;;;;-1.72;81.04;100358.56;5085812;28;20468;-62
2021/01/07 05:52:55;;;;;;;8.27;4.13;;;;;;;-1.67;81.19;100367.25;5085318;28;20060;-63
2021/01/07 05:55:20;;;;;;;6.50;3.42;;;;;;;-1.68;81.41;100368.06;5085780;28;20021;-63
2021/01/07 05:57:46;;;;;;;8.40;4.78;;;;;;;-1.67;81.14;100374.03;5085647;28;20094;-64
2021/01/07 06:00:15;;;;;;;8.23;4.30;;;;;;;-1.66;81.04;100368.13;5085791;28;20084;-63
2021/01/07 06:02:42;;;;;;;9.82;5.88;;;;;;;-1.64;81.06;100366.50;5085675;28;20032;-64
2021/01/07 06:05:13;;;;;;;5.60;3.38;;;;;;;-1.57;81.07;100378.69;5085548;28;20062;-64
2021/01/07 06:07:39;;;;;;;9.02;5.13;;;;;;;-1.62;80.96;100367.44;5085538;28;20029;-63
2021/01/07 06:10:06;;;;;;;6.85;3.88;;;;;;;-1.63;81.00;100374.19;5085483;28;20035;-63
2021/01/07 06:12:32;;;;;;;5.25;2.97;;;;;;;-1.67;81.09;100367.25;5085634;28;20029;-64
2021/01/07 06:15:01;;;;;;;8.05;4.53;;;;;;;-1.69;81.32;100368.88;5085532;28;20027;-64
2021/01/07 06:17:29;;;;;;;7.68;3.72;;;;;;;-1.68;81.20;100365.53;5085171;28;20043;-64
2021/01/07 06:19:54;;;;;;;10.25;4.78;;;;;;;-1.65;81.15;100363.13;5084227;28;20052;-64
2021/01/07 06:22:22;;;;;;;8.63;4.68;;;;;;;-1.63;80.96;100370.81;5084943;28;20055;-64
2021/01/07 06:24:52;;;;;;;9.25;5.00;;;;;;;-1.61;81.15;100366.63;5085058;28;20020;-62
2021/01/07 06:27:24;;;;;;;10.57;5.28;;;;;;;-1.63;81.23;100374.19;5085262;28;20050;-63
2021/01/07 06:29:53;;;;;;;6.75;4.78;;;;;;;-1.61;81.10;100369.19;5085365;28;20021;-63
2021/01/07 06:32:19;;;;;;;10.20;5.10;;;;;;;-1.58;81.15;100368.44;5084980;28;20029;-63
2021/01/07 06:34:48;;;;;;;7.03;4.43;;;;;;;-1.58;81.09;100371.00;5084816;28;20032;-63
2021/01/07 06:37:28;;;;;;;6.13;3.42;;;;;;;-1.55;81.02;100379.59;5085572;28;20020;-63
2021/01/07 06:39:56;;;;;;;10.35;3.97;;;;;;;-1.55;81.04;100376.22;5085308;28;20024;-63
2021/01/07 06:42:22;;;;;;;7.43;4.30;;;;;;;-1.58;80.94;100371.00;5085708;28;20021;-63
2021/01/07 06:44:48;;;;;;;8.07;3.78;;;;;;;-1.67;80.92;100359.63;5085620;28;20020;-63
2021/01/07 06:47:18;;;;;;;8.30;4.65;;;;;;;-1.61;81.25;100366.63;5085234;28;20469;-62
2021/01/07 06:49:44;;;;;;;10.77;5.65;;;;;;;-1.58;80.99;100365.91;5085389;28;20120;-62
2021/01/07 06:52:10;;;;;;;7.13;3.80;;;;;;;-1.57;81.23;100377.81;5085060;28;20100;-62
2021/01/07 06:54:46;;;;;;;8.02;4.80;;;;;;;-1.56;80.99;100375.34;5083216;28;20150;-62
2021/01/07 06:57:13;;;;;;;7.13;3.88;;;;;;;-1.55;81.09;100382.16;5085151;28;20021;-62
2021/01/07 06:59:57;;;;;;;8.95;5.18;;;;;;;-1.55;81.13;100379.59;5084839;28;20024;-62
2021/01/07 07:02:26;;;;;;;6.68;3.60;;;;;;;-1.60;81.00;100370.06;5084833;28;20016;-62
2021/01/07 07:05:05;;;;;;;6.85;4.28;;;;;;;-1.57;81.13;100377.81;5084457;28;20027;-62
2021/01/07 07:07:30;;;;;;;5.05;2.97;;;;;;;-1.52;80.90;100381.44;5084580;28;20020;-61
2021/01/07 07:10:17;;;;;;;6.93;3.45;;;;;;;-1.58;81.05;100382.03;5084517;28;20133;-62
2021/01/07 07:12:47;;;;;;;9.60;5.32;;;;;;;-1.60;81.22;100373.47;5084790;28;20035;-62
2021/01/07 07:15:13;;;;;;;10.10;6.22;;;;;;;-1.59;81.14;100387.94;5083564;28;20100;-62
2021/01/07 07:17:42;;;;;;;8.93;4.75;;;;;;;-1.55;81.23;100386.41;5084612;28;20024;-62
2021/01/07 07:20:08;;;;;;;7.40;3.40;;;;;;;-1.57;81.04;100386.34;5084655;28;20031;-62
2021/01/07 07:22:43;;;;;;;8.13;4.32;;;;;;;-1.58;81.05;100392.22;5084430;28;20084;-62
2021/01/07 07:25:09;;;;;;;8.18;3.80;;;;;;;-1.56;81.07;100393.16;5084413;28;20042;-63
2021/01/07 07:28:00;;;;;;;12.75;5.50;;;;;;;-1.54;81.18;100391.56;5084815;28;20060;-62
2021/01/07 07:30:27;;;;;;;8.95;3.80;;;;;;;-1.54;81.12;100393.22;5083313;28;20021;-62
2021/01/07 07:32:57;;;;;;;3.85;2.20;;;;;;;-1.52;80.83;100389.91;5084379;28;20040;-62
2021/01/07 07:35:36;;;;;;;8.32;4.05;;;;;;;-1.55;80.85;100394.88;5084253;28;20025;-62
2021/01/07 07:38:02;;;;;;;11.88;5.70;;;;;;;-1.54;80.96;100401.72;5082896;28;20039;-62
2021/01/07 07:40:35;;;;;;;11.15;5.82;;;;;;;-1.52;80.92;100396.72;5084379;28;20028;-62
2021/01/07 07:43:01;;;;;;;10.73;5.57;;;;;;;-1.53;81.00;100406.00;5084148;28;20047;-62
2021/01/07 07:45:28;;;;;;;7.15;4.05;;;;;;;-1.51;80.92;100403.53;5084228;28;20028;-62
2021/01/07 07:47:55;;;;;;;4.05;3.15;;;;;;;-1.46;80.74;100401.16;5083966;28;20025;-62
2021/01/07 07:50:21;;;;;;;3.85;2.45;;;;;;;-1.51;80.60;100401.84;5084044;28;20036;-62
2021/01/07 07:52:47;;;;;;;7.45;4.82;;;;;;;-1.57;80.76;100410.91;5083457;28;20129;-62
2021/01/07 07:55:13;;;;;;;9.35;4.93;;;;;;;-1.60;80.86;100411.66;5083689;28;20028;-62
2021/01/07 07:57:48;;;;;;;7.40;4.40;;;;;;;-1.64;80.82;100397.94;5083811;28;20028;-63
2021/01/07 08:00:15;;;;;;;9.35;5.25;;;;;;;-1.59;80.69;100405.75;5083787;28;20024;-62
2021/01/07 08:02:45;;;;;;;11.65;3.75;;;;;;;-1.60;80.77;100404.03;5082527;28;20053;-62
2021/01/07 08:05:25;;;;;;;10.30;4.72;;;;;;;-1.61;80.79;100407.38;5083596;28;20408;-62
2021/01/07 08:07:54;;;;;;;10.27;4.85;;;;;;;-1.62;80.59;100395.44;5083998;28;20297;-62
2021/01/07 08:10:20;;;;;;;11.02;5.63;;;;;;;-1.55;80.80;100406.75;5083742;28;20017;-62
2021/01/07 08:12:46;;;;;;;9.02;5.30;;;;;;;-1.52;80.58;100397.56;5083695;28;20035;-62
2021/01/07 08:15:12;;;;;;;8.48;4.38;;;;;;;-1.55;80.58;100407.63;5083936;28;20058;-63
2021/01/07 08:17:37;;;;;;;8.27;5.00;;;;;;;-1.53;80.63;100403.47;5083646;28;20035;-63
2021/01/07 08:20:03;;;;;;;7.53;4.53;;;;;;;-1.54;80.58;100399.19;5083588;28;20372;-61
2021/01/07 08:22:29;;;;;;;10.15;4.63;;;;;;;-1.53;80.53;100398.38;5083448;28;20037;-63
2021/01/07 08:24:57;;;;;;;8.25;5.05;;;;;;;-1.49;80.48;100401.91;5083450;28;20035;-62
2021/01/07 08:27:28;;;;;;;4.95;3.33;;;;;;;-1.53;80.46;100397.50;5083834;28;20106;-62
2021/01/07 08:29:56;;;;;;;11.80;4.82;;;;;;;-1.47;80.31;100399.44;5083725;28;20024;-63
2021/01/07 08:32:28;;;;;;;9.70;4.55;;;;;;;-1.50;80.61;100401.03;5083604;28;20021;-63
2021/01/07 08:34:54;;;;;;;10.77;3.92;;;;;;;-1.50;80.46;100385.75;5082358;28;20032;-63
2021/01/07 08:37:32;;;;;;;9.05;4.35;;;;;;;-1.44;80.26;100402.09;5081959;28;20033;-62
2021/01/07 08:40:06;;;;;;;6.82;4.40;;;;;;;-1.48;80.36;100402.78;5081389;28;20076;-62
2021/01/07 08:42:38;;;;;;;3.88;2.38;;;;;;;-1.50;80.54;100402.72;5083124;28;20024;-63
2021/01/07 08:45:06;;;;;;;8.52;4.43;;;;;;;-1.47;80.53;100404.53;5083168;28;20445;-63
2021/01/07 08:47:31;;;;;;;6.32;3.55;;;;;;;-1.46;80.44;100399.50;5081732;28;20032;-62
2021/01/07 08:50:06;;;;;;;10.73;5.75;;;;;;;-1.45;80.28;100392.75;5083099;28;20099;-62
2021/01/07 08:52:47;;;;;;;14.27;6.47;;;;;;;-1.43;80.38;100396.19;5081679;28;20021;-63
2021/01/07 08:55:12;;;;;;;9.73;3.80;;;;;;;-1.46;80.33;100379.13;5081568;28;20020;-62
2021/01/07 08:57:38;;;;;;;7.80;4.65;;;;;;;-1.40;80.26;100392.09;5081715;28;20028;-63
2021/01/07 09:00:18;;;;;;;10.05;5.70;;;;;;;-1.42;80.31;100385.22;5081659;28;20025;-64
2021/01/07 09:02:43;;;;;;;8.02;3.65;;;;;;;-1.38;80.23;100379.44;5083092;28;20024;-64
2021/01/07 09:05:09;;;;;;;10.32;5.20;;;;;;;-1.34;80.27;100376.19;5083033;28;20048;-62
2021/01/07 09:07:35;;;;;;;7.65;4.97;;;;;;;-1.29;80.29;100381.47;5083139;28;20413;-63
2021/01/07 09:10:01;;;;;;;8.45;4.80;;;;;;;-1.31;79.87;100395.84;5082743;28;20107;-62
2021/01/07 09:12:35;;;;;;;10.15;5.70;;;;;;;-1.29;79.88;100386.56;5082940;28;20031;-63
2021/01/07 09:15:26;;;;;;;11.30;6.20;;;;;;;-1.26;80.04;100389.22;5082739;28;20028;-63
2021/01/07 09:17:55;;;;;;;11.50;5.97;;;;;;;-1.19;80.26;100393.78;5082259;28;20043;-63
2021/01/07 09:20:31;;;;;;;9.07;4.60;;;;;;;-1.20;79.99;100378.41;5086743;28;20116;-63
2021/01/07 09:23:05;;;;;;;8.98;6.03;;;;;;;-1.17;79.94;100376.00;5086371;28;20044;-62
2021/01/07 09:25:31;;;;;;;9.00;4.43;;;;;;;-1.06;79.95;100384.03;5085374;28;20044;-63
2021/01/07 09:27:57;;;;;;;8.18;5.22;;;;;;;-1.07;79.48;100382.31;5086498;28;20041;-63
2021/01/07 09:30:23;;;;;;;8.30;5.30;;;;;;;-1.06;79.80;100382.38;5086733;28;20046;-63
2021/01/07 09:32:49;;;;;;;10.80;5.95;;;;;;;-1.05;79.77;100384.09;5086250;28;20047;-63
2021/01/07 09:35:14;;;;;;;11.85;6.03;;;;;;;-0.99;79.66;100383.47;5086539;28;20392;-62
2021/01/07 09:37:40;;;;;;;9.35;5.47;;;;;;;-0.97;79.73;100378.44;5085337;28;20024;-62
2021/01/07 09:40:07;;;;;;;9.35;5.10;;;;;;;-0.91;79.64;100387.19;5085143;28;20032;-63
2021/01/07 09:42:33;;;;;;;11.38;5.20;;;;;;;-1.02;79.37;100373.16;5086572;28;20020;-63
2021/01/07 09:44:59;;;;;;;9.68;5.38;;;;;;;-0.92;79.39;100377.81;5086445;28;20103;-63
2021/01/07 09:47:25;;;;;;;6.80;4.15;;;;;;;-0.93;79.26;100381.19;5086485;28;20501;-64
2021/01/07 09:49:51;;;;;;;7.25;4.03;;;;;;;-0.94;79.19;100381.13;5085117;28;20016;-63
2021/01/07 09:52:16;;;;;;;4.50;3.13;;;;;;;-1.04;78.84;100378.19;5086390;28;20025;-63
2021/01/07 09:54:42;;;;;;;6.90;3.97;;;;;;;-1.06;78.73;100384.94;5086263;28;20030;-61
2021/01/07 09:57:08;;;;;;;8.82;5.07;;;;;;;-1.06;79.19;100387.47;5086365;28;20036;-63
2021/01/07 09:59:34;;;;;;;4.97;3.25;;;;;;;-1.03;78.91;100379.94;5086230;28;20035;-62
2021/01/07 10:02:11;;;;;;;7.43;4.07;;;;;;;-1.07;78.98;100380.63;5086401;28;20029;-63
2021/01/07 10:04:41;;;;;;;6.93;5.30;;;;;;;-1.08;79.08;100384.00;5086031;28;20020;-62
2021/01/07 10:07:07;;;;;;;8.30;4.68;;;;;;;-1.01;79.12;100393.59;5086090;28;20028;-62
2021/01/07 10:09:32;;;;;;;6.70;4.05;;;;;;;-1.00;78.93;100387.72;5085844;28;20444;-62
2021/01/07 10:11:58;;;;;;;9.00;4.65;;;;;;;-1.02;78.79;100378.25;5086059;28;20028;-62
2021/01/07 10:14:26;;;;;;;6.18;3.33;;;;;;;-1.01;78.80;100374.91;5084624;28;20016;-62
2021/01/07 10:17:02;;;;;;;7.72;4.97;;;;;;;-1.02;79.00;100368.06;5085954;28;20431;-63
2021/01/07 10:19:30;;;;;;;9.40;4.72;;;;;;;-1.00;79.16;100367.31;5084623;28;20017;-64
2021/01/07 10:22:08;;;;;;;9.25;5.55;;;;;;;-0.91;79.17;100361.69;5085825;28;20099;-63
2021/01/07 10:24:39;;;;;;;9.30;5.57;;;;;;;-0.86;79.42;100361.00;5085115;28;20047;-62
2021/01/07 10:27:07;;;;;;;8.10;5.03;;;;;;;-0.79;78.94;100368.06;5085964;28;20055;-62
2021/01/07 10:29:34;;;;;;;6.57;3.80;;;;;;;-0.74;78.84;100358.91;5084930;28;20257;-62
2021/01/07 10:32:11;;;;;;;8.57;5.55;;;;;;;-0.79;78.30;100355.31;5085650;28;20024;-62
2021/01/07 10:34:44;;;;;;;11.05;5.53;;;;;;;-0.81;78.76;100362.03;5084127;28;20032;-61
2021/01/07 10:37:11;;;;;;;10.18;4.97;;;;;;;-0.82;78.63;100352.66;5084319;28;20104;-62
2021/01/07 10:39:38;;;;;;;8.10;5.22;;;;;;;-0.84;78.66;100355.16;5085171;28;20090;-61
2021/01/07 10:42:05;;;;;;;9.52;5.68;;;;;;;-0.81;78.83;100349.28;5085676;28;20075;-61
2021/01/07 10:44:34;;;;;;;10.98;5.93;;;;;;;-0.78;79.05;100346.84;5085081;28;20027;-63
2021/01/07 10:47:01;;;;;;;9.00;5.80;;;;;;;-0.70;78.80;100345.47;5085345;28;20025;-62
2021/01/07 10:49:31;;;;;;;9.10;6.32;;;;;;;-0.64;78.60;100348.22;5085323;28;20017;-61
2021/01/07 10:52:17;;;;;;;7.05;4.28;;;;;;;-0.71;78.44;100327.56;5085562;28;20531;-62
2021/01/07 10:54:56;;;;;;;7.53;4.68;;;;;;;-0.68;78.31;100331.09;5084982;28;20020;-61
2021/01/07 10:57:37;;;;;;;10.88;5.85;;;;;;;-0.71;78.49;100340.31;5085307;28;20020;-61
2021/01/07 11:00:31;;;;;;;8.82;4.32;;;;;;;-0.64;78.38;100329.53;5085111;28;20016;-62
2021/01/07 11:03:05;;;;;;;11.38;6.05;;;;;;;-0.64;78.68;100325.28;5085010;28;20035;-62
2021/01/07 11:05:37;;;;;;;10.27;5.38;;;;;;;-0.58;78.50;100327.19;5084797;28;20027;-61
2021/01/07 11:08:24;;;;;;;4.68;3.60;;;;;;;-0.61;78.43;100319.44;5083485;28;20050;-61
2021/01/07 11:10:52;;;;;;;9.30;5.60;;;;;;;-0.72;78.21;100307.97;5085026;28;20371;-62
2021/01/07 11:13:23;;;;;;;14.10;5.47;;;;;;;-0.70;78.18;100324.22;5083526;28;20017;-62
2021/01/07 11:15:55;;;;;;;10.25;4.43;;;;;;;-0.75;78.41;100327.44;5084839;28;20017;-62
2021/01/07 11:18:26;;;;;;;17.65;7.10;;;;;;;-0.77;78.20;100318.00;5083145;28;20406;-62
2021/01/07 11:20:58;;;;;;;5.80;3.22;;;;;;;-0.80;78.41;100307.72;5085020;28;20094;-62
2021/01/07 11:23:26;;;;;;;8.63;5.32;;;;;;;-0.78;78.31;100319.69;5082587;28;20083;-63
2021/01/07 11:25:52;;;;;;;12.05;5.18;;;;;;;-0.85;78.40;100309.22;5083359;28;20029;-62
2021/01/07 11:28:18;;;;;;;8.18;4.40;;;;;;;-0.86;78.44;100313.44;5084593;28;20025;-63